Time;durP1;ratioP1;P1;durP2;ratioP2;P2;SDS_P1;SDS_P2;PMS_P1;PMS_P2;Temp;Humidity;BMP_temperature;BMP_pressure;BME280_temperature;BME280_humidity;BME280_pressure;Samples;Min_cycle;Max_cycle;Signal;HPM_P1;HPM_P2
2021/01/12 00:00:11;;;;;;;0.32;0.32;;;7.50;99.90;;;;;;4978308;28;20178;-76
2021/01/12 00:02:37;;;;;;;1.27;1.15;;;7.50;99.90;;;;;;4978558;28;20249;-78
2021/01/12 00:05:04;;;;;;;0.65;0.65;;;7.50;99.90;;;;;;4978279;28;20193;-76
2021/01/12 00:07:30;;;;;;;0.70;0.65;;;7.60;99.90;;;;;;4978094;28;20209;-79
2021/01/12 00:09:56;;;;;;;5.35;1.10;;;7.60;99.90;;;;;;4978169;28;20205;-77
2021/01/12 00:12:21;;;;;;;0.30;0.30;;;7.50;99.90;;;;;;4978110;28;20614;-78
2021/01/12 00:14:47;;;;;;;0.20;0.20;;;7.60;99.90;;;;;;4978114;28;20232;-75
2021/01/12 00:17:14;;;;;;;1.13;1.02;;;7.60;99.90;;;;;;4960578;28;20166;-78
2021/01/12 00:22:14;;;;;;;0.10;0.10;;;7.60;99.90;;;;;;4977715;28;20198;-78
2021/01/12 00:24:44;;;;;;;0.70;0.70;;;7.60;99.90;;;;;;4977687;28;20197;-78
2021/01/12 00:27:11;;;;;;;0.73;0.73;;;7.60;99.90;;;;;;4977835;28;20170;-76
2021/01/12 00:29:37;;;;;;;0.10;0.10;;;7.70;99.90;;;;;;4977746;28;20206;-79
2021/01/12 00:32:03;;;;;;;0.40;0.40;;;7.70;99.90;;;;;;4960247;28;20237;-79
2021/01/12 00:34:29;;;;;;;1.02;1.02;;;7.70;99.90;;;;;;4977522;28;20189;-77
2021/01/12 00:36:55;;;;;;;0.60;0.38;;;7.60;99.90;;;;;;4977751;28;20312;-77
2021/01/12 00:39:22;;;;;;;0.30;0.30;;;7.50;99.90;;;;;;4977567;28;20634;-77
2021/01/12 00:41:48;;;;;;;0.40;0.40;;;7.60;99.90;;;;;;4977434;28;20324;-78
2021/01/12 00:44:14;;;;;;;0.30;0.30;;;7.60;99.90;;;;;;4977425;28;20176;-76
2021/01/12 00:46:43;;;;;;;0.35;0.35;;;7.70;99.90;;;;;;4977554;28;20166;-78
2021/01/12 00:49:09;;;;;;;0.28;0.25;;;7.80;99.90;;;;;;4977107;28;20221;-77
2021/01/12 00:51:36;;;;;;;0.15;0.15;;;7.80;99.90;;;;;;4977266;28;20168;-76
2021/01/12 00:54:02;;;;;;;0.35;0.28;;;7.70;99.90;;;;;;4977163;28;20225;-77
2021/01/12 00:56:28;;;;;;;0.45;0.30;;;7.60;99.90;;;;;;4977177;28;20193;-77
2021/01/12 00:58:53;;;;;;;0.20;0.20;;;7.70;99.90;;;;;;4977296;28;20565;-77
2021/01/12 01:01:19;;;;;;;0.68;0.68;;;7.80;99.90;;;;;;4976972;28;20254;-76
2021/01/12 01:03:44;;;;;;;0.63;0.63;;;7.80;99.90;;;;;;4977129;28;20177;-78
2021/01/12 01:06:10;;;;;;;0.22;0.22;;;7.80;99.90;;;;;;4976967;28;20197;-77
2021/01/12 01:08:35;;;;;;;0.38;0.38;;;7.80;99.90;;;;;;4959687;28;20174;-77
2021/01/12 01:11:02;;;;;;;0.80;0.80;;;7.80;99.90;;;;;;4977035;28;20165;-77
2021/01/12 01:13:28;;;;;;;0.50;0.50;;;7.90;99.90;;;;;;4976794;28;20157;-78
2021/01/12 01:15:53;;;;;;;1.13;1.05;;;7.90;99.90;;;;;;4977260;28;20198;-77
2021/01/12 01:18:19;;;;;;;0.35;0.35;;;7.90;99.90;;;;;;4976847;28;20201;-76
2021/01/12 01:20:44;;;;;;;0.10;0.10;;;7.90;99.90;;;;;;4976966;28;20162;-77
2021/01/12 01:23:10;;;;;;;0.10;0.10;;;7.80;99.90;;;;;;4976763;28;20212;-78
2021/01/12 01:25:36;;;;;;;0.15;0.15;;;7.70;99.90;;;;;;4977032;28;20190;-79
2021/01/12 01:28:01;;;;;;;0.50;0.50;;;7.60;99.90;;;;;;4976751;28;20176;-76
2021/01/12 01:30:27;;;;;;;0.52;0.52;;;7.60;99.90;;;;;;4976997;28;20225;-77
2021/01/12 01:32:53;;;;;;;0.28;0.28;;;7.60;99.90;;;;;;4976556;28;20188;-75
2021/01/12 01:35:19;;;;;;;0.90;0.90;;;7.60;99.90;;;;;;4976802;28;20237;-77
2021/01/12 01:37:44;;;;;;;0.47;0.47;;;7.60;99.90;;;;;;4977739;28;20198;-75
2021/01/12 01:40:10;;;;;;;0.43;0.43;;;7.70;99.90;;;;;;4978593;28;20217;-77
2021/01/12 01:42:36;;;;;;;0.35;0.35;;;7.70;99.90;;;;;;4977808;28;20185;-77
2021/01/12 01:45:07;;;;;;;1.48;0.73;;;7.70;99.90;;;;;;4977609;28;20232;-76
2021/01/12 01:47:34;;;;;;;0.57;0.52;;;7.70;99.90;;;;;;4977358;28;20177;-78
2021/01/12 01:50:00;;;;;;;0.20;0.20;;;7.80;99.90;;;;;;4979292;28;20680;-76
2021/01/12 01:52:26;;;;;;;2.58;2.38;;;7.80;99.90;;;;;;4980477;28;20169;-77
2021/01/12 01:54:56;;;;;;;0.45;0.45;;;7.90;99.90;;;;;;4978688;28;20189;-78
2021/01/12 01:57:22;;;;;;;0.20;0.20;;;7.90;99.90;;;;;;4977673;28;20162;-77
2021/01/12 01:59:48;;;;;;;0.40;0.40;;;8.10;99.90;;;;;;4977566;28;20257;-78
2021/01/12 02:02:13;;;;;;;0.50;0.50;;;8.00;99.90;;;;;;4977304;28;20170;-78
2021/01/12 02:04:40;;;;;;;0.15;0.15;;;8.00;99.90;;;;;;4977337;28;20630;-78
2021/01/12 02:07:08;;;;;;;0.25;0.25;;;8.00;99.90;;;;;;4977115;28;20517;-78
2021/01/12 02:09:45;;;;;;;0.20;0.20;;;8.00;99.90;;;;;;4976692;28;20198;-77
2021/01/12 02:12:44;;;;;;;0.65;0.57;;;8.00;99.90;;;;;;4976658;28;20154;-78
2021/01/12 02:15:12;;;;;;;0.40;0.40;;;8.10;99.90;;;;;;4975530;28;20181;-77
2021/01/12 02:17:37;;;;;;;0.40;0.40;;;8.20;99.90;;;;;;4976861;28;20170;-76
2021/01/12 02:20:04;;;;;;;0.30;0.30;;;8.20;99.90;;;;;;4976899;28;20247;-78
2021/01/12 02:22:30;;;;;;;0.30;0.30;;;8.10;99.90;;;;;;4975822;28;20154;-76
2021/01/12 02:24:56;;;;;;;0.20;0.20;;;8.10;99.90;;;;;;4958466;28;20190;-76
2021/01/12 02:27:25;;;;;;;0.25;0.25;;;8.10;99.90;;;;;;4976958;28;20177;-76
2021/01/12 02:29:51;;;;;;;0.10;0.10;;;8.20;99.90;;;;;;4975213;28;20205;-76
2021/01/12 02:32:18;;;;;;;0.20;0.20;;;8.30;99.90;;;;;;4975731;28;20612;-79
2021/01/12 02:34:45;;;;;;;0.60;0.60;;;8.30;99.90;;;;;;4975388;28;20185;-78
2021/01/12 02:37:17;;;;;;;0.32;0.32;;;8.30;99.90;;;;;;4975742;28;20586;-76
2021/01/12 02:39:43;;;;;;;1.65;0.95;;;8.20;99.90;;;;;;4975537;28;20158;-76
2021/01/12 02:42:13;;;;;;;0.38;0.38;;;8.30;99.90;;;;;;4975394;28;20170;-76
2021/01/12 02:44:39;;;;;;;0.10;0.10;;;8.30;99.90;;;;;;4975085;28;20601;-74
2021/01/12 02:47:05;;;;;;;0.70;0.70;;;8.30;99.90;;;;;;4975059;28;20201;-76
2021/01/12 02:49:30;;;;;;;0.60;0.60;;;8.40;99.90;;;;;;4975058;28;20194;-75
2021/01/12 02:51:56;;;;;;;0.40;0.40;;;8.40;99.90;;;;;;4957469;28;20559;-78
2021/01/12 02:54:22;;;;;;;0.63;0.63;;;8.40;99.90;;;;;;4974746;28;20170;-76
2021/01/12 02:56:47;;;;;;;0.47;0.47;;;8.30;99.90;;;;;;4974788;28;20154;-74
2021/01/12 02:59:13;;;;;;;0.10;0.10;;;8.50;99.90;;;;;;4974618;28;20541;-74
2021/01/12 03:01:38;;;;;;;2.03;0.68;;;8.50;99.90;;;;;;4974756;28;20196;-76
2021/01/12 03:04:04;;;;;;;0.10;0.10;;;8.60;99.90;;;;;;4974859;28;20261;-77
2021/01/12 03:06:30;;;;;;;0.28;0.28;;;8.50;99.90;;;;;;4974827;28;20182;-75
2021/01/12 03:08:56;;;;;;;0.22;0.22;;;8.50;99.90;;;;;;4975096;28;20202;-78
2021/01/12 03:11:21;;;;;;;0.40;0.40;;;8.60;99.90;;;;;;4974888;28;20174;-79
2021/01/12 03:13:47;;;;;;;6.03;1.10;;;8.60;99.90;;;;;;4975028;28;20205;-79
2021/01/12 03:16:12;;;;;;;0.55;0.55;;;8.70;99.90;;;;;;4974976;28;20182;-76
2021/01/12 03:18:38;;;;;;;0.28;0.28;;;8.70;99.90;;;;;;4974591;28;20245;-77
2021/01/12 03:21:04;;;;;;;0.20;0.20;;;8.80;99.90;;;;;;4974958;28;20230;-77
2021/01/12 03:23:30;;;;;;;0.30;0.30;;;8.70;99.90;;;;;;4974686;28;20166;-76
2021/01/12 03:25:55;;;;;;;0.28;0.28;;;8.70;99.90;;;;;;4973594;28;20200;-77
2021/01/12 03:28:21;;;;;;;0.30;0.30;;;8.80;99.90;;;;;;4974837;28;20582;-77
2021/01/12 03:30:47;;;;;;;3.30;1.58;;;8.80;99.90;;;;;;4974658;28;20264;-75
2021/01/12 03:33:12;;;;;;;0.40;0.40;;;8.70;99.90;;;;;;4974780;28;20161;-77
2021/01/12 03:35:38;;;;;;;0.10;0.10;;;8.70;99.90;;;;;;4974611;28;20244;-76
2021/01/12 03:38:03;;;;;;;0.30;0.30;;;8.70;99.90;;;;;;4974816;28;20629;-77
2021/01/12 03:40:29;;;;;;;0.15;0.15;;;8.60;99.90;;;;;;4974745;28;20289;-75
2021/01/12 03:42:54;;;;;;;0.10;0.10;;;8.60;99.90;;;;;;4974828;28;20162;-77
2021/01/12 03:45:20;;;;;;;0.15;0.15;;;8.60;99.90;;;;;;4974673;28;20178;-77
2021/01/12 03:47:46;;;;;;;0.20;0.20;;;8.70;99.90;;;;;;4974605;28;20150;-77
2021/01/12 03:50:11;;;;;;;0.63;0.40;;;8.70;99.90;;;;;;4956944;28;20684;-76
2021/01/12 03:52:37;;;;;;;0.20;0.20;;;8.70;99.90;;;;;;4974709;28;20186;-78
2021/01/12 03:55:04;;;;;;;0.30;0.30;;;8.70;99.90;;;;;;4974464;28;20240;-77
2021/01/12 03:57:29;;;;;;;3.10;0.47;;;8.70;99.90;;;;;;4974572;28;20170;-76
2021/01/12 03:59:55;;;;;;;0.10;0.10;;;8.80;99.90;;;;;;4974566;28;20177;-75
2021/01/12 04:02:21;;;;;;;0.20;0.20;;;8.80;99.90;;;;;;4974381;28;20170;-78
2021/01/12 04:04:47;;;;;;;0.10;0.10;;;8.80;99.90;;;;;;4974456;28;20212;-75
2021/01/12 04:07:12;;;;;;;0.32;0.32;;;8.80;99.90;;;;;;4974412;28;20174;-76
2021/01/12 04:09:39;;;;;;;0.10;0.10;;;8.70;99.90;;;;;;4974493;28;20201;-77
2021/01/12 04:12:05;;;;;;;0.35;0.35;;;8.70;99.90;;;;;;4974495;28;20516;-78
2021/01/12 04:14:31;;;;;;;0.10;0.10;;;8.80;99.90;;;;;;4974327;28;20229;-76
2021/01/12 04:16:56;;;;;;;0.30;0.30;;;8.80;99.90;;;;;;4957101;28;20173;-78
2021/01/12 04:19:22;;;;;;;2.20;1.48;;;8.80;99.90;;;;;;4974349;28;20162;-78
2021/01/12 04:21:48;;;;;;;0.20;0.20;;;8.80;99.90;;;;;;4974608;28;20197;-77
2021/01/12 04:24:13;;;;;;;0.30;0.30;;;8.80;99.90;;;;;;4974349;28;20177;-78
2021/01/12 04:26:39;;;;;;;0.10;0.10;;;8.90;99.90;;;;;;4974157;28;20177;-77
2021/01/12 04:29:04;;;;;;;0.20;0.20;;;8.90;99.90;;;;;;4974311;28;20209;-76
2021/01/12 04:31:30;;;;;;;0.20;0.20;;;8.90;99.90;;;;;;4974429;28;20226;-74
2021/01/12 04:33:56;;;;;;;0.10;0.10;;;8.90;99.90;;;;;;4974390;28;20180;-77
2021/01/12 04:36:22;;;;;;;0.20;0.20;;;9.00;99.90;;;;;;4974492;28;20266;-78
2021/01/12 04:38:47;;;;;;;0.20;0.20;;;9.00;99.90;;;;;;4977686;28;20515;-77
2021/01/12 04:41:15;;;;;;;0.30;0.30;;;9.10;99.90;;;;;;4977602;28;20169;-77
2021/01/12 04:43:41;;;;;;;0.10;0.10;;;9.00;99.90;;;;;;4977548;28;20249;-77
2021/01/12 04:46:06;;;;;;;0.10;0.10;;;9.00;99.90;;;;;;4977513;28;20240;-76
2021/01/12 04:48:32;;;;;;;0.10;0.10;;;8.90;99.90;;;;;;4977466;28;20170;-77
2021/01/12 04:51:03;;;;;;;0.30;0.30;;;8.80;99.90;;;;;;4975954;28;20197;-75
2021/01/12 04:53:49;;;;;;;0.45;0.43;;;8.80;99.90;;;;;;4976040;28;20206;-76
2021/01/12 04:56:15;;;;;;;0.10;0.10;;;8.80;99.90;;;;;;4977713;28;20213;-77
2021/01/12 04:58:42;;;;;;;0.17;0.17;;;8.90;99.90;;;;;;4977151;28;20165;-77
2021/01/12 05:01:10;;;;;;;1.30;0.85;;;8.90;99.90;;;;;;4977555;28;20625;-77
2021/01/12 05:03:35;;;;;;;0.15;0.15;;;8.90;99.90;;;;;;4977391;28;20166;-77
2021/01/12 05:06:02;;;;;;;0.50;0.50;;;9.00;99.90;;;;;;4976819;28;20683;-76
2021/01/12 05:08:28;;;;;;;0.20;0.20;;;9.00;99.90;;;;;;4959291;28;20170;-77
2021/01/12 05:10:57;;;;;;;0.10;0.10;;;8.90;99.90;;;;;;4977056;28;20162;-77
2021/01/12 05:13:26;;;;;;;0.28;0.28;;;9.00;99.90;;;;;;4977180;28;20184;-77
2021/01/12 05:15:53;;;;;;;0.20;0.20;;;8.90;99.90;;;;;;4977109;28;20185;-77
2021/01/12 05:18:19;;;;;;;0.75;0.75;;;9.10;99.90;;;;;;4977274;28;20177;-77
2021/01/12 05:20:50;;;;;;;0.28;0.28;;;9.00;99.90;;;;;;4977349;28;20184;-76
2021/01/12 05:23:29;;;;;;;0.20;0.20;;;9.10;99.90;;;;;;4977217;28;20182;-76
2021/01/12 05:25:58;;;;;;;0.90;0.55;;;9.00;99.90;;;;;;4977225;28;20189;-76
2021/01/12 05:28:24;;;;;;;0.20;0.20;;;9.10;99.90;;;;;;4975860;28;20201;-76
2021/01/12 05:30:50;;;;;;;0.70;0.50;;;9.10;99.90;;;;;;4977353;28;20732;-76
2021/01/12 05:33:17;;;;;;;0.20;0.20;;;9.10;99.90;;;;;;4977499;28;20161;-76
2021/01/12 05:35:45;;;;;;;0.63;0.30;;;9.20;99.90;;;;;;4976876;28;20252;-78
2021/01/12 05:38:10;;;;;;;0.10;0.10;;;9.20;99.90;;;;;;4977181;28;20193;-78
2021/01/12 05:40:41;;;;;;;0.30;0.30;;;9.20;99.90;;;;;;4959654;28;20202;-79
2021/01/12 05:43:12;;;;;;;0.25;0.25;;;9.20;99.90;;;;;;4982077;28;20214;-77
2021/01/12 05:45:39;;;;;;;0.10;0.10;;;9.20;99.90;;;;;;4983268;28;20197;-77
2021/01/12 05:48:06;;;;;;;0.20;0.20;;;9.20;99.90;;;;;;4985994;28;20180;-77
2021/01/12 05:50:32;;;;;;;0.32;0.32;;;9.20;99.90;;;;;;4986352;28;20225;-76
2021/01/12 05:53:16;;;;;;;0.10;0.10;;;9.20;99.90;;;;;;4984889;28;20165;-76
2021/01/12 05:55:44;;;;;;;0.10;0.10;;;9.10;99.90;;;;;;4980856;28;20197;-76
2021/01/12 05:58:20;;;;;;;0.10;0.10;;;9.10;99.90;;;;;;4965349;28;20246;-77
2021/01/12 06:00:51;;;;;;;0.20;0.20;;;9.10;99.90;;;;;;4983108;28;20181;-77
2021/01/12 06:03:18;;;;;;;0.15;0.15;;;9.10;99.90;;;;;;4983204;28;20168;-77
2021/01/12 06:05:46;;;;;;;0.10;0.10;;;9.10;99.90;;;;;;4983908;28;20185;-76
2021/01/12 06:08:14;;;;;;;0.20;0.20;;;9.20;99.90;;;;;;4981425;28;20181;-77
2021/01/12 06:10:43;;;;;;;0.50;0.50;;;9.20;99.90;;;;;;4980728;28;20293;-76
2021/01/12 06:13:31;;;;;;;0.10;0.10;;;9.20;99.90;;;;;;4980663;28;20185;-75
2021/01/12 06:16:11;;;;;;;0.10;0.10;;;9.20;99.90;;;;;;4983484;28;20194;-75
2021/01/12 06:18:48;;;;;;;0.10;0.10;;;9.30;99.90;;;;;;4983640;28;20166;-76
2021/01/12 06:21:17;;;;;;;0.10;0.10;;;9.40;99.90;;;;;;4980522;28;20165;-75
2021/01/12 06:23:53;;;;;;;0.20;0.20;;;9.40;99.90;;;;;;4975704;28;20170;-77
2021/01/12 06:26:19;;;;;;;0.20;0.20;;;9.40;99.90;;;;;;4976593;28;20620;-76
2021/01/12 06:28:45;;;;;;;0.20;0.20;;;9.40;99.90;;;;;;4978006;28;20183;-74
2021/01/12 06:31:11;;;;;;;0.10;0.10;;;9.20;99.90;;;;;;4975949;28;20705;-77
2021/01/12 06:33:37;;;;;;;0.10;0.10;;;9.30;99.90;;;;;;4975840;28;20165;-77
2021/01/12 06:36:09;;;;;;;0.10;0.10;;;9.20;99.90;;;;;;4975505;28;20654;-76
2021/01/12 06:38:37;;;;;;;0.10;0.10;;;9.30;99.90;;;;;;4974988;28;20162;-77
2021/01/12 06:41:06;;;;;;;0.10;0.10;;;9.30;99.90;;;;;;4974901;28;20236;-75
2021/01/12 06:43:32;;;;;;;0.10;0.10;;;9.40;99.90;;;;;;4975247;28;20185;-76
2021/01/12 06:46:00;;;;;;;0.10;0.10;;;9.50;99.90;;;;;;4974986;28;20597;-78
2021/01/12 06:48:28;;;;;;;0.25;0.17;;;9.40;99.90;;;;;;4974868;28;20201;-77
2021/01/12 06:50:55;;;;;;;0.10;0.10;;;9.30;99.90;;;;;;4974866;28;20241;-76
2021/01/12 06:53:22;;;;;;;0.10;0.10;;;9.30;99.90;;;;;;4974974;28;20630;-77
2021/01/12 06:55:47;;;;;;;0.10;0.10;;;9.30;99.90;;;;;;4974976;28;20244;-75
2021/01/12 06:58:13;;;;;;;0.28;0.28;;;9.30;99.90;;;;;;4979344;28;20166;-76
2021/01/12 07:00:38;;;;;;;0.40;0.40;;;9.30;99.90;;;;;;4978757;28;20178;-75
2021/01/12 07:03:08;;;;;;;0.20;0.20;;;9.30;99.90;;;;;;4981061;28;20170;-78
2021/01/12 07:05:41;;;;;;;0.10;0.10;;;9.30;99.90;;;;;;4979730;28;20189;-77
2021/01/12 07:08:09;;;;;;;0.10;0.10;;;9.50;99.90;;;;;;4975173;28;20184;-78
2021/01/12 07:10:47;;;;;;;0.68;0.68;;;9.50;99.90;;;;;;4974744;28;20205;-77
2021/01/12 07:13:14;;;;;;;0.20;0.20;;;9.50;99.90;;;;;;4974283;28;20175;-76
2021/01/12 07:15:54;;;;;;;0.30;0.25;;;9.50;99.90;;;;;;4974494;28;20217;-75
2021/01/12 07:18:23;;;;;;;0.30;0.30;;;9.50;99.90;;;;;;4974382;28;20177;-77
2021/01/12 07:20:50;;;;;;;0.30;0.30;;;9.50;99.90;;;;;;4974430;28;20174;-76
2021/01/12 07:23:16;;;;;;;0.15;0.15;;;9.50;99.90;;;;;;4974650;28;20162;-76
2021/01/12 07:25:44;;;;;;;0.10;0.10;;;9.40;99.90;;;;;;4973965;28;20226;-78
2021/01/12 07:28:17;;;;;;;0.85;0.85;;;9.40;99.90;;;;;;4974183;28;20719;-81
2021/01/12 07:30:46;;;;;;;0.40;0.40;;;9.40;99.90;;;;;;4973295;28;20755;-74
2021/01/12 07:33:25;;;;;;;0.73;0.73;;;9.40;99.90;;;;;;4973035;28;20634;-77
2021/01/12 07:35:53;;;;;;;0.10;0.10;;;9.50;99.90;;;;;;4973393;28;20185;-77
2021/01/12 07:38:22;;;;;;;0.20;0.20;;;9.50;99.90;;;;;;4973302;28;20642;-78
2021/01/12 07:40:48;;;;;;;0.52;0.52;;;9.50;99.90;;;;;;4973129;28;20170;-75
2021/01/12 07:43:23;;;;;;;0.25;0.20;;;9.40;99.90;;;;;;4972958;28;20166;-77
2021/01/12 07:45:50;;;;;;;0.10;0.10;;;9.40;99.90;;;;;;4973015;28;20185;-76
2021/01/12 07:48:16;;;;;;;0.30;0.20;;;9.40;99.90;;;;;;4972878;28;20225;-76
2021/01/12 07:50:43;;;;;;;0.55;0.55;;;9.40;99.90;;;;;;4973068;28;20212;-77
2021/01/12 07:53:09;;;;;;;1.85;1.05;;;9.40;99.90;;;;;;4973433;28;20190;-74
2021/01/12 07:55:40;;;;;;;0.50;0.50;;;9.30;99.90;;;;;;4972225;28;20604;-75
2021/01/12 07:58:05;;;;;;;0.25;0.25;;;9.40;99.90;;;;;;4973052;28;20170;-75
2021/01/12 08:00:32;;;;;;;1.00;0.73;;;9.40;99.90;;;;;;4973573;28;20181;-77
2021/01/12 08:02:58;;;;;;;0.22;0.22;;;9.40;99.90;;;;;;4974361;28;20174;-76
2021/01/12 08:05:25;;;;;;;0.20;0.20;;;9.40;99.90;;;;;;4975532;28;20182;-76
2021/01/12 08:08:02;;;;;;;0.30;0.30;;;9.30;99.90;;;;;;4974884;28;20657;-77
2021/01/12 08:10:32;;;;;;;5.28;2.30;;;9.40;99.90;;;;;;4972796;28;20213;-78
2021/01/12 08:13:09;;;;;;;1.33;0.85;;;9.50;99.90;;;;;;4974855;28;20165;-76
2021/01/12 08:15:36;;;;;;;2.20;1.35;;;9.50;99.90;;;;;;4978255;28;20531;-75
2021/01/12 08:18:05;;;;;;;0.50;0.50;;;9.40;99.90;;;;;;4978557;28;20563;-75
2021/01/12 08:20:31;;;;;;;0.30;0.30;;;9.40;99.90;;;;;;4978993;28;20170;-76
2021/01/12 08:22:57;;;;;;;0.40;0.40;;;9.40;99.90;;;;;;4976874;28;20543;-79
2021/01/12 08:25:23;;;;;;;0.80;0.68;;;9.30;99.90;;;;;;4977474;28;20281;-76
2021/01/12 08:27:54;;;;;;;0.40;0.40;;;9.30;99.90;;;;;;4977560;28;20174;-77
2021/01/12 08:30:22;;;;;;;0.17;0.17;;;9.30;99.90;;;;;;4940034;28;565467;-77
2021/01/12 08:33:06;;;;;;;0.20;0.20;;;9.30;99.90;;;;;;4977394;28;20166;-75
2021/01/12 08:35:37;;;;;;;0.88;0.68;;;9.30;99.90;;;;;;4978255;28;20190;-75
2021/01/12 08:38:06;;;;;;;3.55;0.98;;;9.30;99.90;;;;;;4978482;28;20228;-74
2021/01/12 08:40:33;;;;;;;0.30;0.30;;;9.30;99.90;;;;;;4977408;28;20170;-75
2021/01/12 08:43:00;;;;;;;2.83;1.60;;;9.30;99.90;;;;;;4976781;28;20157;-77
2021/01/12 08:45:26;;;;;;;0.30;0.30;;;9.30;99.90;;;;;;4976997;28;20200;-87
2021/01/12 08:47:52;;;;;;;0.63;0.63;;;9.30;99.90;;;;;;4976949;28;20166;-75
2021/01/12 08:50:19;;;;;;;2.60;0.95;;;9.30;99.90;;;;;;4976925;28;20281;-76
2021/01/12 08:52:49;;;;;;;0.10;0.10;;;9.30;99.90;;;;;;4977008;28;20515;-76
2021/01/12 08:55:21;;;;;;;0.75;0.75;;;9.30;99.90;;;;;;4976657;28;20193;-76
2021/01/12 08:57:58;;;;;;;2.33;1.65;;;9.40;99.90;;;;;;4976861;28;20166;-75
2021/01/12 09:00:44;;;;;;;0.50;0.35;;;9.50;99.90;;;;;;4976870;28;20172;-75
2021/01/12 09:03:14;;;;;;;0.65;0.65;;;9.70;99.90;;;;;;4976449;28;20205;-76
2021/01/12 09:05:41;;;;;;;0.47;0.40;;;9.80;99.90;;;;;;4976794;28;20204;-76
2021/01/12 09:08:10;;;;;;;11.80;0.50;;;9.90;99.90;;;;;;4976785;28;20170;-75
2021/01/12 09:10:38;;;;;;;0.95;0.77;;;9.80;99.90;;;;;;4976772;28;20665;-75
2021/01/12 09:13:04;;;;;;;0.30;0.30;;;9.70;99.90;;;;;;4976824;28;20166;-77
2021/01/12 09:15:32;;;;;;;0.30;0.30;;;9.80;99.90;;;;;;4977007;28;20194;-78
2021/01/12 09:18:03;;;;;;;0.63;0.63;;;9.90;99.90;;;;;;4976733;28;20181;-77
2021/01/12 09:20:28;;;;;;;0.25;0.25;;;9.90;99.90;;;;;;4976761;28;20613;-75
2021/01/12 09:23:03;;;;;;;0.30;0.30;;;9.80;99.90;;;;;;4976535;28;20179;-82
2021/01/12 09:25:28;;;;;;;0.45;0.45;;;9.70;99.90;;;;;;4976344;28;20211;-81
2021/01/12 09:27:54;;;;;;;0.50;0.50;;;9.50;99.90;;;;;;4976896;28;20622;-76
2021/01/12 09:30:25;;;;;;;0.80;0.80;;;9.50;99.90;;;;;;4979825;28;20241;-77
2021/01/12 09:32:51;;;;;;;0.30;0.30;;;9.40;99.90;;;;;;4989770;28;20198;-78
2021/01/12 09:35:20;;;;;;;0.20;0.20;;;9.50;99.90;;;;;;4996049;28;20177;-79
2021/01/12 09:37:59;;;;;;;0.35;0.35;;;9.50;99.90;;;;;;4977230;28;20170;-77
2021/01/12 09:40:25;;;;;;;0.45;0.30;;;9.50;99.90;;;;;;4976957;28;20173;-77
2021/01/12 09:42:51;;;;;;;0.68;0.68;;;9.30;99.90;;;;;;4976277;28;20236;-73
2021/01/12 09:45:16;;;;;;;0.32;0.32;;;9.30;99.90;;;;;;4975998;28;20191;-76
2021/01/12 09:47:42;;;;;;;0.10;0.10;;;9.30;99.90;;;;;;4976456;28;20174;-75
2021/01/12 09:50:09;;;;;;;0.30;0.30;;;9.30;99.90;;;;;;4976039;28;20198;-78
2021/01/12 09:52:34;;;;;;;0.28;0.28;;;9.40;99.90;;;;;;4976430;28;20517;-77
2021/01/12 09:55:01;;;;;;;0.30;0.30;;;9.40;99.90;;;;;;4975618;28;20190;-78
2021/01/12 09:57:26;;;;;;;0.20;0.20;;;9.40;99.90;;;;;;4958671;28;20555;-76
2021/01/12 09:59:52;;;;;;;1.35;0.40;;;9.50;99.90;;;;;;4975945;28;20173;-76
2021/01/12 10:02:17;;;;;;;0.30;0.30;;;9.50;99.90;;;;;;4976026;28;20500;-75
2021/01/12 10:04:45;;;;;;;0.35;0.35;;;9.50;99.90;;;;;;4975684;28;20194;-77
2021/01/12 10:07:10;;;;;;;0.50;0.50;;;9.50;99.90;;;;;;4975499;28;20554;-78
2021/01/12 10:09:37;;;;;;;0.47;0.47;;;9.50;99.90;;;;;;4975364;28;20252;-77
2021/01/12 10:12:03;;;;;;;0.40;0.40;;;9.50;99.90;;;;;;4975434;28;20165;-78
2021/01/12 10:14:29;;;;;;;0.28;0.28;;;9.50;99.90;;;;;;4975333;28;20261;-77
2021/01/12 10:16:55;;;;;;;1.33;1.23;;;9.40;99.90;;;;;;4975689;28;20253;-77
2021/01/12 10:19:20;;;;;;;0.32;0.32;;;9.30;99.90;;;;;;4975251;28;20163;-78
2021/01/12 10:21:50;;;;;;;0.30;0.30;;;9.40;99.90;;;;;;4975359;28;20246;-77
2021/01/12 10:24:16;;;;;;;0.20;0.20;;;9.40;99.90;;;;;;4975303;28;20161;-76
2021/01/12 10:26:43;;;;;;;0.38;0.38;;;9.40;99.90;;;;;;4975122;28;20181;-77
2021/01/12 10:29:09;;;;;;;0.77;0.77;;;9.40;99.90;;;;;;4975767;28;20194;-75
2021/01/12 10:31:34;;;;;;;0.10;0.10;;;9.50;99.90;;;;;;4974969;28;20233;-77
2021/01/12 10:34:00;;;;;;;0.30;0.30;;;9.50;99.90;;;;;;4975136;28;20162;-76
2021/01/12 10:36:26;;;;;;;1.10;1.10;;;9.60;99.90;;;;;;4973166;28;20293;-76
2021/01/12 10:38:51;;;;;;;0.20;0.20;;;9.50;99.90;;;;;;4975178;28;20205;-77
2021/01/12 10:41:17;;;;;;;0.45;0.38;;;9.40;99.90;;;;;;4993062;28;20520;-75
2021/01/12 10:43:43;;;;;;;1.55;0.45;;;9.30;99.90;;;;;;4993238;28;20181;-77
2021/01/12 10:46:09;;;;;;;0.22;0.22;;;9.20;99.90;;;;;;4993579;28;20209;-77
2021/01/12 10:48:35;;;;;;;0.45;0.45;;;9.20;99.90;;;;;;4993169;28;20220;-77
2021/01/12 10:51:00;;;;;;;0.80;0.38;;;9.20;99.90;;;;;;4993068;28;20212;-77
2021/01/12 10:53:26;;;;;;;0.43;0.30;;;9.10;99.90;;;;;;4994345;28;20165;-77
2021/01/12 10:55:52;;;;;;;0.20;0.20;;;9.00;99.90;;;;;;4994053;28;20602;-76
2021/01/12 10:58:18;;;;;;;0.10;0.10;;;9.00;99.90;;;;;;4994022;28;20174;-77
2021/01/12 11:00:46;;;;;;;0.20;0.20;;;8.70;99.90;;;;;;4976605;28;20180;-76
2021/01/12 11:03:12;;;;;;;7.63;0.60;;;8.40;99.90;;;;;;4993660;28;20164;-76
2021/01/12 11:05:38;;;;;;;0.10;0.10;;;8.40;99.90;;;;;;4993917;28;20239;-77
2021/01/12 11:08:04;;;;;;;0.10;0.10;;;8.50;99.90;;;;;;4993957;28;20169;-78
2021/01/12 11:10:30;;;;;;;4.38;0.68;;;8.60;99.90;;;;;;4976419;28;20220;-78
2021/01/12 11:12:59;;;;;;;1.95;0.55;;;8.80;99.90;;;;;;4993711;28;20203;-77
2021/01/12 11:15:25;;;;;;;0.17;0.17;;;8.90;99.90;;;;;;4993780;28;20193;-76
2021/01/12 11:17:51;;;;;;;38.72;0.55;;;9.00;99.90;;;;;;4993727;28;20533;-79
2021/01/12 11:20:18;;;;;;;0.20;0.20;;;9.10;99.90;;;;;;4994013;28;20288;-78
2021/01/12 11:22:46;;;;;;;0.13;0.13;;;9.10;99.90;;;;;;4993519;28;20153;-77
2021/01/12 11:25:13;;;;;;;0.10;0.10;;;9.20;99.90;;;;;;4993542;28;20605;-78
2021/01/12 11:27:39;;;;;;;3.00;0.75;;;9.20;99.90;;;;;;4993591;28;20207;-77
2021/01/12 11:30:07;;;;;;;0.22;0.22;;;9.20;99.90;;;;;;4993489;28;20275;-77
2021/01/12 11:32:34;;;;;;;0.15;0.15;;;9.40;99.90;;;;;;4975731;28;20272;-77
2021/01/12 11:35:00;;;;;;;6.07;1.13;;;9.50;99.90;;;;;;4993511;28;20283;-78
2021/01/12 11:37:28;;;;;;;0.20;0.20;;;9.50;99.90;;;;;;4994162;28;20178;-77
2021/01/12 11:39:54;;;;;;;0.20;0.20;;;9.60;99.90;;;;;;4994545;28;20243;-76
2021/01/12 11:42:19;;;;;;;0.77;0.77;;;9.60;99.90;;;;;;4993661;28;20666;-77
2021/01/12 11:44:45;;;;;;;0.43;0.43;;;9.60;99.90;;;;;;4994266;28;20197;-77
2021/01/12 11:47:11;;;;;;;0.10;0.10;;;9.60;99.90;;;;;;4997101;28;20295;-77
2021/01/12 11:49:36;;;;;;;0.10;0.10;;;9.20;99.90;;;;;;4997976;28;20197;-77
2021/01/12 11:52:06;;;;;;;0.20;0.20;;;8.60;99.90;;;;;;4997438;28;20258;-78
2021/01/12 11:54:32;;;;;;;0.20;0.20;;;8.30;99.90;;;;;;4997373;28;20185;-75
2021/01/12 11:56:59;;;;;;;0.25;0.25;;;8.20;99.90;;;;;;4997512;28;20176;-77
2021/01/12 11:59:30;;;;;;;0.20;0.20;;;8.10;99.90;;;;;;4997871;28;20256;-77
2021/01/12 12:01:56;;;;;;;0.10;0.10;;;8.00;99.90;;;;;;4999802;28;20510;-77
2021/01/12 12:04:24;;;;;;;8.10;1.38;;;8.10;99.90;;;;;;5004299;28;20170;-76
2021/01/12 12:06:52;;;;;;;5.05;1.55;;;8.20;99.90;;;;;;5006085;28;20530;-74
2021/01/12 12:09:18;;;;;;;0.10;0.10;;;8.10;99.90;;;;;;4999013;28;20185;-77
2021/01/12 12:11:44;;;;;;;0.20;0.20;;;8.10;99.90;;;;;;4997331;28;20177;-75
2021/01/12 12:14:11;;;;;;;0.20;0.20;;;8.00;99.90;;;;;;4997522;28;20177;-76
2021/01/12 12:16:38;;;;;;;0.32;0.32;;;8.10;99.90;;;;;;4994846;28;20172;-76
2021/01/12 12:19:04;;;;;;;1.02;0.75;;;8.30;99.90;;;;;;4995976;28;20195;-77
2021/01/12 12:21:30;;;;;;;27.67;1.10;;;8.50;99.90;;;;;;4996778;28;20188;-76
2021/01/12 12:23:56;;;;;;;0.20;0.20;;;8.70;99.90;;;;;;4996656;28;20172;-78
2021/01/12 12:26:21;;;;;;;1.02;0.68;;;8.80;99.90;;;;;;4994311;28;20193;-76
2021/01/12 12:28:47;;;;;;;0.50;0.50;;;8.90;99.90;;;;;;4992257;28;20188;-77
2021/01/12 12:31:13;;;;;;;0.10;0.10;;;9.00;99.90;;;;;;4965933;28;20227;-76
2021/01/12 12:33:40;;;;;;;0.10;0.10;;;9.00;99.90;;;;;;4978858;28;20269;-77
2021/01/12 12:36:06;;;;;;;2.83;0.73;;;8.90;99.90;;;;;;4978347;28;20204;-77
2021/01/12 12:38:35;;;;;;;0.10;0.10;;;8.70;99.90;;;;;;4996179;28;20224;-77
2021/01/12 12:41:05;;;;;;;0.13;0.13;;;8.70;99.90;;;;;;4996319;28;20173;-75
2021/01/12 12:43:31;;;;;;;0.30;0.30;;;8.60;99.90;;;;;;4995413;28;20176;-76
2021/01/12 12:45:56;;;;;;;0.57;0.57;;;8.60;99.90;;;;;;4993733;28;20189;-77
2021/01/12 12:48:22;;;;;;;0.20;0.20;;;8.80;99.90;;;;;;4992500;28;20185;-76
2021/01/12 12:50:47;;;;;;;0.20;0.20;;;8.90;99.90;;;;;;4994926;28;20245;-75
2021/01/12 12:53:13;;;;;;;0.30;0.30;;;8.90;99.90;;;;;;4995527;28;20157;-78
2021/01/12 12:55:40;;;;;;;0.30;0.30;;;8.80;99.90;;;;;;4995263;28;20196;-75
2021/01/12 12:58:05;;;;;;;0.20;0.20;;;8.70;99.90;;;;;;4995226;28;20169;-75
2021/01/12 13:00:31;;;;;;;0.20;0.20;;;8.80;99.90;;;;;;4996358;28;20256;-75